createdAt,value
2023-02-13T00:04:49.910Z,3.88
2023-02-13T00:10:11.711Z,3.72
2023-02-13T00:15:33.638Z,3.62
2023-02-13T00:21:04.692Z,3.59
2023-02-13T00:26:26.368Z,3.60
2023-02-13T00:31:48.143Z,3.87
2023-02-13T00:37:09.944Z,3.64
2023-02-13T00:42:31.621Z,3.73
2023-02-13T00:47:53.290Z,3.64
2023-02-13T00:53:15.019Z,3.47
2023-02-13T00:58:37.051Z,3.57
2023-02-13T01:03:58.781Z,3.37
2023-02-13T01:09:20.536Z,3.30
2023-02-13T01:14:42.197Z,3.24
2023-02-13T01:20:03.928Z,3.09
2023-02-13T01:25:25.658Z,3.17
2023-02-13T01:30:53.505Z,3.22
2023-02-13T01:36:15.483Z,3.18
2023-02-13T01:41:37.218Z,3.28
2023-02-13T01:46:58.985Z,3.30
2023-02-13T01:52:20.706Z,3.52
2023-02-13T01:57:48.971Z,3.53
2023-02-13T02:03:33.492Z,3.37
2023-02-13T02:09:00.087Z,3.12
2023-02-13T02:14:21.890Z,3.10
2023-02-13T02:19:53.887Z,3.01
2023-02-13T02:25:38.565Z,2.87
2023-02-13T02:31:37.907Z,2.79
2023-02-13T02:37:50.786Z,2.91
2023-02-13T02:43:31.541Z,2.84
2023-02-13T02:49:25.701Z,2.79
2023-02-13T02:55:09.071Z,2.76
2023-02-13T03:00:53.590Z,3.04
2023-02-13T03:06:21.910Z,3.11
2023-02-13T03:12:07.249Z,3.00
2023-02-13T03:17:47.551Z,2.57
2023-02-13T03:23:22.902Z,2.37
2023-02-13T03:29:52.925Z,2.45
2023-02-13T03:35:55.927Z,2.50
2023-02-13T03:41:26.647Z,2.77
2023-02-13T03:46:52.603Z,2.77
2023-02-13T03:52:29.662Z,2.64
2023-02-13T03:58:15.834Z,2.73
2023-02-13T04:03:59.100Z,2.76
2023-02-13T04:09:20.862Z,2.62
2023-02-13T04:14:57.287Z,2.70
2023-02-13T04:20:19.384Z,2.58
2023-02-13T04:25:46.097Z,2.51
2023-02-13T04:31:07.822Z,2.41
2023-02-13T04:36:29.756Z,2.50
2023-02-13T04:41:51.429Z,2.36
2023-02-13T04:47:13.144Z,2.48
2023-02-13T04:52:34.802Z,2.47
2023-02-13T04:57:57.155Z,2.62
2023-02-13T05:03:19.113Z,2.30
2023-02-13T05:08:40.930Z,2.42
2023-02-13T05:14:02.602Z,2.30
2023-02-13T05:19:24.268Z,2.10
2023-02-13T05:24:45.938Z,2.34
2023-02-13T05:30:08.235Z,2.45
2023-02-13T05:35:30.932Z,2.31
2023-02-13T05:40:52.643Z,2.28
2023-02-13T05:46:14.493Z,2.01
2023-02-13T05:51:36.574Z,2.16
2023-02-13T05:56:58.259Z,2.19
2023-02-13T06:02:19.930Z,2.16
2023-02-13T06:07:41.660Z,2.15
2023-02-13T06:13:03.377Z,1.78
2023-02-13T06:18:25.101Z,1.85
2023-02-13T06:23:46.801Z,1.86
2023-02-13T06:29:09.291Z,1.76
2023-02-13T06:34:31.022Z,1.84
2023-02-13T06:39:52.697Z,1.82
2023-02-13T06:45:14.826Z,2.10
2023-02-13T06:50:36.517Z,2.34
2023-02-13T06:55:58.212Z,2.13
2023-02-13T07:01:20.069Z,2.39
2023-02-13T07:06:41.849Z,2.50
2023-02-13T07:12:06.673Z,2.25
2023-02-13T07:17:29.076Z,2.32
2023-02-13T07:22:50.963Z,2.39
2023-02-13T07:28:13.597Z,2.27
2023-02-13T07:33:42.106Z,2.28
2023-02-13T07:39:04.102Z,2.22
2023-02-13T07:44:25.798Z,2.11
2023-02-13T07:49:47.657Z,2.06
2023-02-13T07:55:11.581Z,2.19
2023-02-13T08:00:33.309Z,2.29
2023-02-13T08:05:55.237Z,2.08
2023-02-13T08:11:47.091Z,2.20
2023-02-13T08:17:09.774Z,2.43
2023-02-13T08:22:31.453Z,2.67
2023-02-13T08:27:53.122Z,2.66
2023-02-13T08:33:14.790Z,2.79
2023-02-13T08:38:36.509Z,2.89
2023-02-13T08:43:58.192Z,2.99
2023-02-13T08:49:19.895Z,3.08
2023-02-13T08:54:41.643Z,3.21
2023-02-13T09:00:03.858Z,3.35
2023-02-13T09:05:25.553Z,3.38
2023-02-13T09:10:47.346Z,3.43
2023-02-13T09:16:10.573Z,3.71
2023-02-13T09:21:32.254Z,3.81
2023-02-13T09:26:54.053Z,3.74
2023-02-13T09:32:16.965Z,3.92
2023-02-13T09:37:38.644Z,4.17
2023-02-13T09:43:13.878Z,4.36
2023-02-13T09:48:39.081Z,4.33
2023-02-13T09:54:07.408Z,4.55
2023-02-13T09:59:56.967Z,4.62
2023-02-13T10:05:44.306Z,4.71
2023-02-13T10:11:20.638Z,4.74
2023-02-13T10:16:50.770Z,4.89
2023-02-13T10:22:18.276Z,4.95
2023-02-13T10:28:04.042Z,5.04
2023-02-13T10:33:30.278Z,5.27
2023-02-13T10:39:02.500Z,5.40
2023-02-13T10:44:50.557Z,5.51
2023-02-13T10:50:30.795Z,5.52
2023-02-13T10:56:03.986Z,5.68
2023-02-13T11:01:49.998Z,5.82
2023-02-13T11:07:16.118Z,6.06
2023-02-13T11:12:37.845Z,6.11
2023-02-13T11:18:11.949Z,6.23
2023-02-13T11:23:38.086Z,6.40
2023-02-13T11:29:06.234Z,6.54
2023-02-13T11:34:31.670Z,6.76
2023-02-13T11:39:58.756Z,6.84
2023-02-13T11:45:23.158Z,6.96
2023-02-13T11:50:52.225Z,7.01
2023-02-13T11:56:15.736Z,7.12
2023-02-13T12:01:37.528Z,7.05
2023-02-13T12:07:11.686Z,7.17
2023-02-13T12:12:44.027Z,7.32
2023-02-13T12:18:08.483Z,7.55
2023-02-13T12:23:57.677Z,7.78
2023-02-13T12:29:54.319Z,7.90
2023-02-13T12:35:21.971Z,8.08
2023-02-13T12:41:08.646Z,8.34
2023-02-13T12:47:10.545Z,8.45
2023-02-13T12:52:41.293Z,8.75
2023-02-13T12:58:15.679Z,8.85
2023-02-13T13:03:49.429Z,8.91
2023-02-13T13:09:20.016Z,8.97
2023-02-13T13:14:59.240Z,8.98
2023-02-13T13:20:48.713Z,8.90
2023-02-13T13:26:18.344Z,8.94
2023-02-13T13:31:40.484Z,9.00
2023-02-13T13:37:23.843Z,9.04
2023-02-13T13:43:08.173Z,9.02
2023-02-13T13:48:51.442Z,9.03
2023-02-13T13:54:13.068Z,9.06
2023-02-13T13:59:37.766Z,9.21
2023-02-13T14:05:20.984Z,9.20
2023-02-13T14:11:01.437Z,9.18
2023-02-13T14:16:41.593Z,9.16
2023-02-13T14:22:27.819Z,9.16
2023-02-13T14:28:02.091Z,9.28
2023-02-13T14:33:28.172Z,9.26
2023-02-13T14:38:57.863Z,9.32
2023-02-13T14:44:27.073Z,9.33
2023-02-13T14:49:51.050Z,9.32
2023-02-13T14:55:33.663Z,9.37
2023-02-13T15:01:29.114Z,9.36
2023-02-13T15:06:54.080Z,9.42
2023-02-13T15:12:28.400Z,9.39
2023-02-13T15:17:50.800Z,9.35
2023-02-13T15:23:21.585Z,9.32
2023-02-13T15:28:58.897Z,9.16
2023-02-13T15:34:25.137Z,9.15
2023-02-13T15:39:46.808Z,9.08
2023-02-13T15:45:16.449Z,9.08
2023-02-13T15:50:42.173Z,8.81
2023-02-13T15:56:05.429Z,8.79
2023-02-13T16:01:28.588Z,8.65
2023-02-13T16:06:53.039Z,8.67
2023-02-13T16:12:22.837Z,8.44
2023-02-13T16:17:46.808Z,8.41
2023-02-13T16:23:17.938Z,8.19
2023-02-13T16:28:39.769Z,7.92
2023-02-13T16:34:14.361Z,7.82
2023-02-13T16:39:36.073Z,7.59
2023-02-13T16:45:25.506Z,7.39
2023-02-13T16:50:55.318Z,7.24
2023-02-13T16:56:17.085Z,7.15
2023-02-13T17:01:38.768Z,7.02
2023-02-13T17:07:00.485Z,7.00
2023-02-13T17:12:23.596Z,6.84
2023-02-13T17:17:45.478Z,6.77
2023-02-13T17:23:12.049Z,6.68
2023-02-13T17:28:33.717Z,6.56
2023-02-13T17:33:55.454Z,6.33
2023-02-13T17:39:17.153Z,6.31
2023-02-13T17:44:38.822Z,6.01
2023-02-13T17:50:09.097Z,5.93
2023-02-13T17:55:33.740Z,5.81
2023-02-13T18:00:55.450Z,5.86
2023-02-13T18:06:17.154Z,5.83
2023-02-13T18:11:38.892Z,5.79
2023-02-13T18:17:00.802Z,5.63
2023-02-13T18:22:22.490Z,5.40
2023-02-13T18:27:44.592Z,5.33
2023-02-13T18:33:06.306Z,5.20
2023-02-13T18:38:29.211Z,5.03
2023-02-13T18:43:50.909Z,4.90
2023-02-13T18:49:12.626Z,4.89
2023-02-13T18:54:34.348Z,4.58
2023-02-13T18:59:56.062Z,4.72
2023-02-13T19:05:18.216Z,4.70
2023-02-13T19:10:39.897Z,4.68
2023-02-13T19:16:10.054Z,4.80
2023-02-13T19:21:33.845Z,4.70
2023-02-13T19:26:55.540Z,4.69
2023-02-13T19:32:17.409Z,4.60
2023-02-13T19:37:44.059Z,4.43
2023-02-13T19:43:06.439Z,4.50
2023-02-13T19:48:28.187Z,4.16
2023-02-13T19:53:56.535Z,4.01
2023-02-13T19:59:18.328Z,3.93
2023-02-13T20:04:40.033Z,3.75
2023-02-13T20:10:01.759Z,3.65
2023-02-13T20:15:24.635Z,3.61
2023-02-13T20:20:47.167Z,3.78
2023-02-13T20:26:11.277Z,3.83
2023-02-13T20:31:34.348Z,3.91
2023-02-13T20:36:56.183Z,3.80
2023-02-13T20:42:17.852Z,4.11
2023-02-13T20:47:41.685Z,4.03
2023-02-13T20:53:03.363Z,3.71
2023-02-13T20:58:25.035Z,3.75
2023-02-13T21:03:49.873Z,3.55
2023-02-13T21:09:12.729Z,3.48
2023-02-13T21:14:34.582Z,3.10
2023-02-13T21:19:56.324Z,3.26
2023-02-13T21:25:18.695Z,3.55
2023-02-13T21:30:40.492Z,3.50
2023-02-13T21:36:04.730Z,3.52
2023-02-13T21:41:27.222Z,3.39
2023-02-13T21:46:49.015Z,3.33
2023-02-13T21:52:10.806Z,3.29
2023-02-13T21:57:32.539Z,3.28
2023-02-13T22:02:54.364Z,3.10
2023-02-13T22:08:16.072Z,3.14
2023-02-13T22:13:41.479Z,3.15
2023-02-13T22:19:05.271Z,3.24
2023-02-13T22:24:27.686Z,3.23
2023-02-13T22:29:51.231Z,3.15
2023-02-13T22:35:12.994Z,3.12
2023-02-13T22:40:35.666Z,3.03
2023-02-13T22:46:02.552Z,3.13
2023-02-13T22:51:27.298Z,3.11
2023-02-13T22:56:49.070Z,3.02
2023-02-13T23:02:10.919Z,3.14
2023-02-13T23:07:32.779Z,3.03
2023-02-13T23:12:54.448Z,2.91
2023-02-13T23:18:17.863Z,2.70
2023-02-13T23:23:39.601Z,2.88
2023-02-13T23:29:01.330Z,2.81
2023-02-13T23:34:23.069Z,2.61
2023-02-13T23:39:45.042Z,2.70
2023-02-13T23:45:07.159Z,2.75
2023-02-13T23:50:28.858Z,2.68
2023-02-13T23:55:50.637Z,2.45
